Address 0x08f510baa70322622f23a6157eca6c05b4c1c13a

 
 
Txn Hash
Method
Block
From
To
Value [Txn Fee]
0x66e09a05dbe5586503fb7b504b8a04a49113d099c3a1f0ce47bd763747dbfd400x60e06040335943552022-09-26 15:08:25124 days 5 hrs ago0x08f510baa70322622f23a6157eca6c05b4c1c13aOUT Contract Creation0 MATIC0.319013448 52
0xa7df6bae333635b2c4b7017d98def493c946493158d0e6326510ca543861560dTransfer279289182022-05-04 21:52:47268 days 22 hrs ago0x08f510baa70322622f23a6157eca6c05b4c1c13aOUT Chainlink: LINK Token0 MATIC0.001563474192 30.015438813
0x796b32fdf9e500dc83c5f200da64de4dbca2d7d97e72d07ab4815e3ebde37e5aTransfer279289142022-05-04 21:52:31268 days 22 hrs ago0x08f510baa70322622f23a6157eca6c05b4c1c13aOUT0xfb1660905af3f93a684914af1348234d3a19b01c2 MATIC0.000650020443 30.953354468
0xf1dbec451b24beb11df4074c2a9556aa79900b390758459b7f952a0f36dcc082Transfer279258752022-05-04 19:59:52269 days 24 mins ago0x08f510baa70322622f23a6157eca6c05b4c1c13aOUT0xfb1660905af3f93a684914af1348234d3a19b01c5 MATIC0.002631510535 125.310025512
0x4625cba15008c088cc6db7410819485f70ae485ffd72625b7c679fc1d4a9258aTransfer Ownersh...277251112022-04-29 17:54:34274 days 2 hrs ago0x08f510baa70322622f23a6157eca6c05b4c1c13aOUT 0x2a9a65c7a35eefed699531031f798d909d0434580 MATIC0.005427996 114
0xa39e4f0414869ed1e62eeff2c3988afd36acae818de30f8a28da12c77824c7e9Transfer Ownersh...277250672022-04-29 17:53:06274 days 2 hrs ago0x08f510baa70322622f23a6157eca6c05b4c1c13aOUT 0x99ca59cab16767f40afe385bdd423a309f6ac2c20 MATIC0.00589868 124
0x9836a95dc1824326ee37fb203f3d3f85be5385f25624e60900dadbf9ebacaddcTransfer Ownersh...277250662022-04-29 17:53:04274 days 2 hrs ago0x08f510baa70322622f23a6157eca6c05b4c1c13aOUT 0x76383a4bd99ba4df7e1c325cd42ddbbb7643dfdc0 MATIC0.005905872 124
0xb71ee1989f791806b60516820114b342d53b7798759ee29cf9f5f1901b5645c6Set Requester Pe...277248982022-04-29 17:47:15274 days 2 hrs ago0x08f510baa70322622f23a6157eca6c05b4c1c13aOUT 0x2a9a65c7a35eefed699531031f798d909d0434580 MATIC0.00237672 90
0x0cd3b0d973befa6a1108468c078683355fee37cfb5b9b9e09839a3cef28a0b5eRequest New Roun...277247922022-04-29 17:41:03274 days 2 hrs ago0x08f510baa70322622f23a6157eca6c05b4c1c13aOUT 0x2a9a65c7a35eefed699531031f798d909d0434580 MATIC0.003515407112 33.216863637
0xf11666cb2d3f934ea75fbe6457acde0f778c3f9414415f46bcaa2f52e7ae3cb6Set Requester Pe...277247612022-04-29 17:40:01274 days 2 hrs ago0x08f510baa70322622f23a6157eca6c05b4c1c13aOUT 0x2a9a65c7a35eefed699531031f798d909d0434580 MATIC0.00290208 60
0xdffe5496d2e2575d18954ce4891e2029bf2be27c97f97f0c110ff10f885215c3Request New Roun...277246812022-04-29 17:37:17274 days 2 hrs ago0x08f510baa70322622f23a6157eca6c05b4c1c13aOUT 0x76383a4bd99ba4df7e1c325cd42ddbbb7643dfdc0 MATIC0.001074368848 38.550678133
0x5eb2d531eac19a515a63fa4d884ee59f996af93e448e7031fa0cdfa2c0dc2e87Request New Roun...277204162022-04-29 14:58:55274 days 5 hrs ago0x08f510baa70322622f23a6157eca6c05b4c1c13aOUT 0x76383a4bd99ba4df7e1c325cd42ddbbb7643dfdc0 MATIC0.001893342313 67.937217463
0xa783df24e415aafc9a398eeb927330ed84f28bd144d288e0dfa804fe6120dd43Add Access276459982022-04-27 17:54:59276 days 2 hrs ago0x08f510baa70322622f23a6157eca6c05b4c1c13aOUT 0x2a9a65c7a35eefed699531031f798d909d0434580 MATIC0.0028398 60
0x2563882d72f19a57371d25a69fa3b76ecd32b42907210b32df9d6b09e78d2b40Change Oracles276456032022-04-27 17:41:25276 days 2 hrs ago0x08f510baa70322622f23a6157eca6c05b4c1c13aOUT 0x2a9a65c7a35eefed699531031f798d909d0434580 MATIC0.04468023 63
0xf0a75d8850ec80735add531f73d99a2fd35d6775237f16ef67122b51ca9afc03Transfer And Cal...276456022022-04-27 17:41:23276 days 2 hrs ago0x08f510baa70322622f23a6157eca6c05b4c1c13aOUT Chainlink: LINK Token0 MATIC0.005416614 63
0xf2ba345696f504a0c223fe788b43ec21159cf519dbcd786eea39fffc6aa654aa0x60c06040276454592022-04-27 17:36:29276 days 2 hrs ago0x08f510baa70322622f23a6157eca6c05b4c1c13aOUT Create: AccessControlledAggregator0 MATIC0.361075585 65
0x557732eedb7853df58add89a981f13d38ab892808ae8ecda74f14582f99a15d7Add Access276449272022-04-27 17:18:09276 days 3 hrs ago0x08f510baa70322622f23a6157eca6c05b4c1c13aOUT 0x76383a4bd99ba4df7e1c325cd42ddbbb7643dfdc0 MATIC0.003601336 76
0x076a1620cb5687898d507ccf947389dcebc57e033c40d1995be6e959f8d721bc0x60806040276446722022-04-27 17:09:24276 days 3 hrs ago0x08f510baa70322622f23a6157eca6c05b4c1c13aOUT Contract Creation0 MATIC0.165658492 76
0x4a4c5505542f8a38a9868654118363e8a52f7cbb4b47cd6deb6a489726a9444aSet Config276446402022-04-27 17:07:52276 days 3 hrs ago0x08f510baa70322622f23a6157eca6c05b4c1c13aOUT 0x76383a4bd99ba4df7e1c325cd42ddbbb7643dfdc0 MATIC0.128286176 76
0x1f0369acf867529bfc313c7a78806542e7e0097d89a75e83637638be5df12656Transfer276446402022-04-27 17:07:52276 days 3 hrs ago0x08f510baa70322622f23a6157eca6c05b4c1c13aOUT Chainlink: LINK Token0 MATIC0.003957852 76
0x9093dbfa01849ef4274f2c42d6b83d9ef7c3684026ae75cb97581e3bcc40787eSet Payees276446202022-04-27 17:06:32276 days 3 hrs ago0x08f510baa70322622f23a6157eca6c05b4c1c13aOUT 0x76383a4bd99ba4df7e1c325cd42ddbbb7643dfdc0 MATIC0.032767248 76
0x4c3bf823609698448c4a6dec3519cd0b1d4aa178640204d0ec0e433e55c53e790x60e06040276446022022-04-27 17:05:26276 days 3 hrs ago0x08f510baa70322622f23a6157eca6c05b4c1c13aOUT Create: AccessControlledOffchainAggregator0 MATIC0.469673236 76
0x8718ba89661b53af5cdfd147e4329e72d213391f5455b9957f9cbf4f108ba445Transfer Ownersh...197288452021-10-01 18:57:43484 days 1 hr ago0x08f510baa70322622f23a6157eca6c05b4c1c13aOUT 0xdfa6d1182d8d22cab99dfbb8370b91c4abe477620 MATIC0.0000952282
0x1f67f59e9b5fc38ad9f27575af44f8fdeb67eb33cf7e78b670d057b53f21341dTransfer Ownersh...197288452021-10-01 18:57:43484 days 1 hr ago0x08f510baa70322622f23a6157eca6c05b4c1c13aOUT 0xd52e6d6502b08e088f19e619685a622fe6ee0c710 MATIC0.0000952282
0x4f8a2314995feea17d8616dacbde24a394f5a6633784ee38d6a876d8136b31e4Transfer Ownersh...197288452021-10-01 18:57:43484 days 1 hr ago0x08f510baa70322622f23a6157eca6c05b4c1c13aOUT 0xe3021a668015e8721f9f923fa3e977936d1f6fd30 MATIC0.0000952282
[ Download CSV Export 
Parent Txn Hash Block From To Value
Loading

Contract Name:
0 MATIC

Compiler Version
0

Optimization Enabled:
0 MATIC

Other Settings:
-NA-
Block Transaction Gas Used Reward
Age Block Fee Address BC Fee Address Voting Power Jailed Incoming
Block Uncle Number Difficulty Gas Used Reward
Loading
Loading
Make sure to use the "Vote Down" button for any spammy posts, and the "Vote Up" for interesting conversations.